Time;durP1;ratioP1;P1;durP2;ratioP2;P2;SDS_P1;SDS_P2;PMS_P1;PMS_P2;Temp;Humidity;BMP_temperature;BMP_pressure;BME280_temperature;BME280_humidity;BME280_pressure;Samples;Min_cycle;Max_cycle;Signal;HPM_P1;HPM_P2
2022/06/17 00:01:41;;;;;;;5.28;3.40;;;;;;;16.85;100.00;100296.91;5073658;28;20052;-77
2022/06/17 00:04:10;;;;;;;7.80;3.88;;;;;;;16.86;100.00;100287.84;5073009;28;20048;-80
2022/06/17 00:06:42;;;;;;;7.97;3.63;;;;;;;16.81;100.00;100293.66;5074342;28;20051;-79
2022/06/17 00:09:14;;;;;;;7.25;3.83;;;;;;;16.82;100.00;100300.75;5074485;28;20045;-75
2022/06/17 00:11:43;;;;;;;8.40;3.95;;;;;;;16.80;100.00;100302.72;5074462;28;20371;-77
2022/06/17 00:14:13;;;;;;;6.10;3.63;;;;;;;16.94;100.00;100300.66;5074276;28;20569;-79
2022/06/17 00:16:42;;;;;;;6.10;3.88;;;;;;;16.91;100.00;100290.16;5074257;28;20083;-78
2022/06/17 00:19:18;;;;;;;7.28;3.38;;;;;;;16.93;100.00;100302.50;5074326;28;20041;-78
2022/06/17 00:21:49;;;;;;;5.35;3.42;;;;;;;16.91;100.00;100299.09;5074316;28;20055;-76
2022/06/17 00:24:23;;;;;;;7.97;3.35;;;;;;;16.90;100.00;100307.31;5073967;28;20504;-78
2022/06/17 00:26:53;;;;;;;5.65;3.53;;;;;;;16.89;100.00;100309.16;5074147;28;20392;-76
2022/06/17 00:29:25;;;;;;;6.30;3.53;;;;;;;16.88;100.00;100312.81;5073563;28;20521;-76
2022/06/17 00:31:54;;;;;;;6.85;3.47;;;;;;;16.87;100.00;100303.03;5073836;28;20045;-78
2022/06/17 00:34:23;;;;;;;6.25;3.53;;;;;;;16.83;100.00;100296.22;5074025;28;20040;-77
2022/06/17 00:36:53;;;;;;;7.57;3.80;;;;;;;16.82;100.00;100310.66;5074564;28;20131;-78
2022/06/17 00:39:27;;;;;;;4.45;3.20;;;;;;;16.85;100.00;100316.63;5072230;28;20094;-78
2022/06/17 00:41:59;;;;;;;5.18;3.30;;;;;;;16.85;100.00;100318.47;5074027;28;20044;-77
2022/06/17 00:44:31;;;;;;;5.25;3.33;;;;;;;16.94;100.00;100315.00;5073476;28;20098;-78
2022/06/17 00:47:03;;;;;;;7.65;3.53;;;;;;;17.38;100.00;100323.78;5073855;28;20045;-77
2022/06/17 00:49:44;;;;;;;6.53;3.28;;;;;;;17.10;100.00;100319.94;5073260;28;20106;-77
2022/06/17 00:52:21;;;;;;;5.22;3.83;;;;;;;17.04;100.00;100325.84;5073707;28;20052;-77
2022/06/17 00:54:55;;;;;;;7.70;3.92;;;;;;;17.05;100.00;100328.41;5073744;28;20041;-77
2022/06/17 00:57:27;;;;;;;5.40;3.92;;;;;;;16.99;100.00;100318.16;5073115;28;20114;-77
2022/06/17 01:00:17;;;;;;;6.15;4.07;;;;;;;16.87;100.00;100313.81;5073653;28;20036;-77
2022/06/17 01:02:48;;;;;;;8.70;3.55;;;;;;;16.96;100.00;100312.16;5073700;28;20042;-76
2022/06/17 01:05:19;;;;;;;6.28;3.28;;;;;;;16.83;100.00;100312.38;5074105;28;20096;-77
2022/06/17 01:07:54;;;;;;;5.22;3.35;;;;;;;16.95;100.00;100315.84;5074489;28;20078;-77
2022/06/17 01:10:23;;;;;;;5.53;3.28;;;;;;;16.95;100.00;100305.94;5073795;28;20163;-77
2022/06/17 01:12:56;;;;;;;4.03;2.60;;;;;;;16.86;100.00;100296.78;5073613;28;20067;-77
2022/06/17 01:15:28;;;;;;;5.57;3.00;;;;;;;16.73;100.00;100297.97;5073468;28;20075;-78
2022/06/17 01:17:57;;;;;;;4.88;2.55;;;;;;;16.58;100.00;100297.38;5073717;28;20486;-77
2022/06/17 01:20:28;;;;;;;4.15;2.40;;;;;;;16.73;100.00;100303.38;5073326;28;20044;-79
2022/06/17 01:23:01;;;;;;;4.63;2.47;;;;;;;16.72;100.00;100302.50;5073605;28;20047;-79
2022/06/17 01:25:32;;;;;;;4.35;2.50;;;;;;;16.64;100.00;100298.72;5073023;28;20048;-76
2022/06/17 01:28:05;;;;;;;6.05;2.70;;;;;;;16.55;100.00;100308.44;5072972;28;20044;-74
2022/06/17 01:30:37;;;;;;;5.18;3.13;;;;;;;16.43;100.00;100306.78;5073077;28;20468;-78
2022/06/17 01:33:09;;;;;;;3.88;2.70;;;;;;;16.26;100.00;100300.94;5073402;28;20051;-79
2022/06/17 01:35:42;;;;;;;6.65;2.53;;;;;;;16.15;100.00;100310.91;5072942;28;20416;-79
2022/06/17 01:38:12;;;;;;;;;;;;;;;16.11;100.00;100312.13;5073699;28;20119;-79
2022/06/17 01:40:40;;;;;;;5.85;2.80;;;;;;;16.06;100.00;100322.41;5072750;28;20337;-79
2022/06/17 01:43:12;;;;;;;5.85;2.90;;;;;;;16.05;100.00;100320.72;5073112;28;20044;-79
2022/06/17 01:45:46;;;;;;;5.85;2.95;;;;;;;16.09;100.00;100314.94;5072596;28;20086;-80
2022/06/17 01:48:18;;;;;;;5.07;2.80;;;;;;;16.08;100.00;100326.69;5073172;28;20448;-79
2022/06/17 01:50:48;;;;;;;4.05;2.80;;;;;;;16.12;100.00;100332.69;5073092;28;20482;-79
2022/06/17 01:53:23;;;;;;;6.28;2.85;;;;;;;16.08;100.00;100332.06;5073046;28;20052;-79
2022/06/17 01:55:55;;;;;;;4.57;3.00;;;;;;;16.08;100.00;100328.53;5073757;28;20045;-79
2022/06/17 01:58:28;;;;;;;6.07;3.00;;;;;;;16.07;100.00;100329.50;5073329;28;20044;-81
2022/06/17 02:00:58;;;;;;;5.10;3.10;;;;;;;16.05;100.00;100339.53;5071855;28;20044;-80
2022/06/17 02:03:29;;;;;;;6.15;2.88;;;;;;;15.99;100.00;100339.03;5072984;28;20131;-80
2022/06/17 02:06:08;;;;;;;5.47;2.97;;;;;;;16.20;100.00;100346.34;5073898;28;20044;-81
2022/06/17 02:08:38;;;;;;;6.70;3.13;;;;;;;16.47;100.00;100348.59;5073142;28;20044;-81
2022/06/17 02:11:08;;;;;;;5.28;2.75;;;;;;;16.44;100.00;100347.03;5072891;28;20044;-80
2022/06/17 02:13:40;;;;;;;3.95;2.47;;;;;;;16.55;100.00;100351.50;5072969;28;20101;-80
2022/06/17 02:16:09;;;;;;;7.72;2.90;;;;;;;16.48;100.00;100356.53;5071773;28;20079;-81
2022/06/17 02:18:39;;;;;;;5.68;3.10;;;;;;;16.36;100.00;100345.94;5072708;28;20052;-80
2022/06/17 02:21:12;;;;;;;4.45;2.80;;;;;;;16.47;100.00;100354.84;5074488;28;20036;-81
2022/06/17 02:23:42;;;;;;;5.50;2.75;;;;;;;16.57;100.00;100354.94;5076362;28;20064;-79
2022/06/17 02:26:12;;;;;;;5.43;2.88;;;;;;;16.53;100.00;100351.66;5076918;28;20098;-78
2022/06/17 02:28:42;;;;;;;4.75;2.60;;;;;;;16.42;100.00;100346.31;5076154;28;20041;-78
2022/06/17 02:31:10;;;;;;;4.20;2.22;;;;;;;16.47;100.00;100344.06;5076321;28;20124;-78
2022/06/17 02:33:40;;;;;;;5.13;2.47;;;;;;;16.46;100.00;100352.28;5075766;28;20040;-77
2022/06/17 02:36:15;;;;;;;5.25;2.40;;;;;;;16.45;100.00;100351.41;5076289;28;20521;-78
2022/06/17 02:38:45;;;;;;;5.80;2.75;;;;;;;16.35;100.00;100355.84;5075634;28;20135;-80
2022/06/17 02:41:21;;;;;;;4.82;2.72;;;;;;;16.21;100.00;100348.06;5076074;28;20370;-77
2022/06/17 02:43:57;;;;;;;8.00;3.13;;;;;;;16.27;100.00;100348.41;5076048;28;20072;-77
2022/06/17 02:46:30;;;;;;;6.65;3.05;;;;;;;16.36;100.00;100354.88;5076157;28;20465;-80
2022/06/17 02:49:01;;;;;;;5.53;2.67;;;;;;;16.28;100.00;100355.50;5075880;28;20044;-77
2022/06/17 02:51:32;;;;;;;6.13;3.10;;;;;;;16.24;100.00;100347.81;5075981;28;20049;-77
2022/06/17 02:54:05;;;;;;;6.38;3.08;;;;;;;16.26;100.00;100356.63;5076282;28;20098;-77
2022/06/17 02:56:35;;;;;;;6.15;3.47;;;;;;;16.21;100.00;100356.13;5075981;28;20041;-77
2022/06/17 02:59:13;;;;;;;6.63;3.10;;;;;;;16.29;100.00;100362.59;5075997;28;20575;-77
2022/06/17 03:01:42;;;;;;;6.25;3.22;;;;;;;16.16;100.00;100364.59;5075840;28;20127;-77
2022/06/17 03:04:15;;;;;;;7.53;3.17;;;;;;;16.32;100.00;100361.50;5075649;28;20127;-77
2022/06/17 03:06:46;;;;;;;5.40;3.65;;;;;;;16.35;100.00;100361.25;5075564;28;20430;-76
2022/06/17 03:09:19;;;;;;;4.82;3.25;;;;;;;16.38;100.00;100358.28;5075096;28;20382;-76
2022/06/17 03:11:51;;;;;;;7.75;3.28;;;;;;;16.32;100.00;100358.81;5075585;28;20040;-76
2022/06/17 03:14:20;;;;;;;5.10;3.55;;;;;;;16.41;100.00;100357.22;5075635;28;20045;-77
2022/06/17 03:16:52;;;;;;;6.10;3.10;;;;;;;16.54;100.00;100356.03;5074037;28;20059;-77
2022/06/17 03:19:22;;;;;;;7.47;3.30;;;;;;;16.67;100.00;100360.41;5075397;28;20044;-77
2022/06/17 03:21:50;;;;;;;6.13;3.17;;;;;;;16.62;100.00;100359.94;5075867;28;20047;-77
2022/06/17 03:24:26;;;;;;;5.57;2.92;;;;;;;16.74;100.00;100362.47;5075734;28;20135;-77
2022/06/17 03:26:58;;;;;;;6.68;3.05;;;;;;;16.99;100.00;100363.13;5075729;28;20100;-78
2022/06/17 03:29:29;;;;;;;6.43;3.53;;;;;;;17.09;100.00;100356.81;5075422;28;20051;-77
2022/06/17 03:32:01;;;;;;;5.05;3.17;;;;;;;17.37;100.00;100359.78;5074634;28;20048;-77
2022/06/17 03:34:36;;;;;;;4.63;2.85;;;;;;;17.92;100.00;100352.28;5075005;28;20070;-80
2022/06/17 03:37:10;;;;;;;3.67;2.60;;;;;;;18.80;100.00;100360.41;5073946;28;20044;-79
2022/06/17 03:39:42;;;;;;;5.70;2.58;;;;;;;19.35;100.00;100362.50;5074812;28;20083;-79
2022/06/17 03:42:17;;;;;;;4.35;2.50;;;;;;;20.00;100.00;100369.72;5074705;28;20043;-78
2022/06/17 03:44:51;;;;;;;5.55;2.45;;;;;;;20.18;100.00;100372.47;5074674;28;20044;-78
2022/06/17 03:47:25;;;;;;;4.28;2.65;;;;;;;20.84;100.00;100371.31;5074842;28;20118;-78
2022/06/17 03:49:58;;;;;;;5.00;2.88;;;;;;;21.23;100.00;100379.09;5074633;28;20453;-80
2022/06/17 03:52:48;;;;;;;6.97;2.40;;;;;;;21.30;100.00;100378.34;5075016;28;20053;-79
2022/06/17 03:55:21;;;;;;;6.88;2.67;;;;;;;21.65;100.00;100374.69;5074372;28;20524;-79
2022/06/17 03:57:53;;;;;;;5.35;2.28;;;;;;;21.71;100.00;100382.19;5074645;28;20213;-76
2022/06/17 04:00:28;;;;;;;4.83;2.03;;;;;;;21.90;100.00;100372.94;5074919;28;20120;-77
2022/06/17 04:03:00;;;;;;;3.30;2.17;;;;;;;22.16;100.00;100367.50;5074237;28;20045;-77
2022/06/17 04:05:30;;;;;;;3.50;2.30;;;;;;;21.77;100.00;100371.69;5074525;28;20047;-77
2022/06/17 04:07:58;;;;;;;3.92;2.20;;;;;;;22.08;100.00;100375.59;5074539;28;20493;-80
2022/06/17 04:10:32;;;;;;;6.22;2.30;;;;;;;22.33;100.00;100372.97;5075237;28;20049;-80
2022/06/17 04:13:01;;;;;;;;;;;;;;;22.92;100.00;100384.69;5075086;28;20056;-81
2022/06/17 04:15:39;;;;;;;4.40;2.30;;;;;;;23.16;100.00;100381.09;5074366;28;20365;-83
2022/06/17 04:18:09;;;;;;;3.63;2.20;;;;;;;23.24;100.00;100381.97;5074506;28;20048;-84
2022/06/17 04:20:44;;;;;;;6.75;2.20;;;;;;;23.04;100.00;100380.59;5073661;28;20143;-85
2022/06/17 04:23:15;;;;;;;3.60;2.00;;;;;;;23.47;100.00;100378.56;5074177;28;20389;-84
2022/06/17 04:25:49;;;;;;;4.28;2.10;;;;;;;23.42;100.00;100379.06;5073559;28;20051;-85
2022/06/17 04:28:21;;;;;;;3.40;2.17;;;;;;;24.11;100.00;100384.84;5074243;28;20075;-84
2022/06/17 04:30:53;;;;;;;3.60;2.10;;;;;;;23.44;100.00;100382.44;5073928;28;20055;-84
2022/06/17 04:33:28;;;;;;;4.47;2.28;;;;;;;22.55;100.00;100383.22;5073754;28;20049;-82
2022/06/17 04:36:10;;;;;;;5.25;2.38;;;;;;;22.04;100.00;100395.94;5074000;28;20040;-83
2022/06/17 04:38:48;;;;;;;5.80;2.38;;;;;;;23.08;100.00;100385.56;5073629;28;20051;-81
2022/06/17 04:41:21;;;;;;;7.32;2.80;;;;;;;23.31;100.00;100380.25;5073566;28;20063;-78
2022/06/17 04:43:53;;;;;;;4.80;2.22;;;;;;;23.93;100.00;100375.06;5072617;28;20131;-78
2022/06/17 04:46:26;;;;;;;3.63;2.15;;;;;;;24.65;100.00;100374.06;5073866;28;20044;-78
2022/06/17 04:48:57;;;;;;;4.68;2.25;;;;;;;24.67;100.00;100377.44;5073709;28;20040;-77
2022/06/17 04:51:26;;;;;;;4.28;2.00;;;;;;;23.66;100.00;100372.75;5073883;28;20063;-77
2022/06/17 04:54:01;;;;;;;7.20;2.38;;;;;;;22.80;100.00;100382.25;5074106;28;20397;-77
2022/06/17 04:56:33;;;;;;;3.90;2.25;;;;;;;22.77;100.00;100376.28;5073602;28;20044;-77
2022/06/17 04:59:17;;;;;;;4.43;2.20;;;;;;;22.49;100.00;100378.47;5073551;28;20434;-80
2022/06/17 05:01:49;;;;;;;6.68;2.47;;;;;;;21.98;100.00;100385.72;5072940;28;20273;-77
2022/06/17 05:04:18;;;;;;;4.53;2.10;;;;;;;22.43;100.00;100379.97;5073310;28;20098;-84
2022/06/17 05:06:46;;;;;;;4.22;2.50;;;;;;;22.47;100.00;100391.34;5073360;28;20055;-86
2022/06/17 05:09:21;;;;;;;6.38;2.58;;;;;;;22.75;100.00;100390.06;5073604;28;20039;-81
2022/06/17 05:11:55;;;;;;;3.05;2.17;;;;;;;23.11;100.00;100395.22;5073295;28;20041;-79
2022/06/17 05:14:37;;;;;;;5.97;2.45;;;;;;;23.08;100.00;100395.59;5072383;28;20048;-80
2022/06/17 05:17:05;;;;;;;4.85;2.38;;;;;;;23.42;100.00;100401.69;5073058;28;20075;-89
2022/06/17 05:19:35;;;;;;;4.30;2.40;;;;;;;22.97;100.00;100398.59;5072720;28;20052;-79
2022/06/17 05:22:11;;;;;;;6.78;2.67;;;;;;;23.41;100.00;100391.81;5073139;28;20036;-76
2022/06/17 05:24:42;;;;;;;5.13;2.55;;;;;;;23.35;100.00;100395.22;5073224;28;20456;-77
2022/06/17 05:27:12;;;;;;;4.68;2.42;;;;;;;23.20;100.00;100415.13;5071998;28;20048;-78
2022/06/17 05:29:41;;;;;;;7.22;2.75;;;;;;;23.74;100.00;100407.28;5073404;28;20094;-75
2022/06/17 05:32:12;;;;;;;5.10;2.40;;;;;;;23.96;100.00;100412.84;5072146;28;20053;-82
2022/06/17 05:34:40;;;;;;;6.57;2.60;;;;;;;23.72;100.00;100412.91;5072625;28;20052;-81
2022/06/17 05:37:09;;;;;;;7.45;2.55;;;;;;;23.74;100.00;100402.69;5072852;28;20044;-81
2022/06/17 05:39:37;;;;;;;7.22;2.70;;;;;;;22.92;100.00;100420.03;5072794;28;20045;-82
2022/06/17 05:42:07;;;;;;;6.50;2.58;;;;;;;22.26;100.00;100410.81;5073231;28;20076;-78
2022/06/17 05:44:36;;;;;;;6.20;2.92;;;;;;;22.43;100.00;100414.47;5072743;28;20041;-78
2022/06/17 05:47:05;;;;;;;6.38;2.88;;;;;;;23.18;100.00;100418.03;5073157;28;20041;-78
2022/06/17 05:49:34;;;;;;;4.78;2.75;;;;;;;23.16;100.00;100417.31;5072927;28;20048;-78
2022/06/17 05:52:03;;;;;;;4.97;3.00;;;;;;;22.94;100.00;100409.84;5071710;28;20044;-78
2022/06/17 05:54:31;;;;;;;5.05;2.90;;;;;;;23.52;100.00;100417.84;5073495;28;20040;-78
2022/06/17 05:56:59;;;;;;;6.50;2.60;;;;;;;24.49;100.00;100419.47;5075287;28;20048;-77
2022/06/17 05:59:32;;;;;;;3.75;2.60;;;;;;;24.76;100.00;100422.72;5076690;28;20436;-78
2022/06/17 06:02:02;;;;;;;7.03;2.80;;;;;;;25.31;100.00;100430.72;5076556;28;20128;-75
2022/06/17 06:04:31;;;;;;;7.07;2.53;;;;;;;24.71;100.00;100436.91;5071278;28;20028;-76
2022/06/17 06:07:00;;;;;;;5.63;2.60;;;;;;;24.69;100.00;100436.22;5073326;28;20075;-78
2022/06/17 06:09:28;;;;;;;4.03;2.60;;;;;;;24.42;100.00;100444.91;5077084;28;20041;-74
2022/06/17 06:11:56;;;;;;;5.40;2.67;;;;;;;23.87;100.00;100437.56;5076620;28;20110;-76
2022/06/17 06:14:25;;;;;;;5.60;2.63;;;;;;;23.27;100.00;100444.22;5077106;28;20063;-79
2022/06/17 06:16:53;;;;;;;5.38;2.50;;;;;;;22.74;100.00;100441.91;5078742;28;20465;-78
2022/06/17 06:19:23;;;;;;;6.32;2.70;;;;;;;23.11;100.00;100444.22;5075725;28;20032;-78
2022/06/17 06:21:53;;;;;;;4.75;2.38;;;;;;;23.46;100.00;100453.06;5075949;28;20445;-78
2022/06/17 06:24:22;;;;;;;5.35;2.33;;;;;;;23.81;100.00;100441.81;5074553;28;20033;-77
2022/06/17 06:26:50;;;;;;;5.75;2.90;;;;;;;24.22;100.00;100455.31;5076197;28;20393;-79
2022/06/17 06:29:18;;;;;;;6.25;2.55;;;;;;;24.65;100.00;100440.34;5075747;28;20033;-80
2022/06/17 06:31:48;;;;;;;4.45;2.47;;;;;;;24.17;100.00;100455.00;5075715;28;20112;-79
2022/06/17 06:34:20;;;;;;;4.57;2.30;;;;;;;23.87;100.00;100462.94;5075911;28;20446;-79
2022/06/17 06:36:49;;;;;;;8.30;2.63;;;;;;;23.61;100.00;100454.09;5075507;28;20106;-77
2022/06/17 06:39:18;;;;;;;7.38;2.78;;;;;;;23.63;100.00;100460.22;5076341;28;20047;-77
2022/06/17 06:41:46;;;;;;;6.03;2.60;;;;;;;23.56;100.00;100461.91;5075554;28;20048;-81
2022/06/17 06:44:14;;;;;;;3.90;2.22;;;;;;;23.47;100.00;100455.63;5076100;28;20468;-79
2022/06/17 06:46:42;;;;;;;6.07;2.45;;;;;;;23.34;100.00;100458.84;5076558;28;20064;-80
2022/06/17 06:49:11;;;;;;;5.70;2.70;;;;;;;23.05;100.00;100455.75;5077675;28;20048;-77
2022/06/17 06:51:39;;;;;;;4.53;2.58;;;;;;;23.01;100.00;100451.69;5076188;28;20162;-79
2022/06/17 06:54:09;;;;;;;5.15;2.75;;;;;;;23.07;100.00;100462.75;5076127;28;20081;-77
2022/06/17 06:56:40;;;;;;;4.72;2.30;;;;;;;22.72;100.00;100466.53;5074943;28;20127;-78
2022/06/17 06:59:10;;;;;;;6.85;2.88;;;;;;;22.79;100.00;100456.72;5075699;28;20033;-77
2022/06/17 07:01:38;;;;;;;6.63;2.47;;;;;;;23.09;100.00;100468.03;5074658;28;20107;-78
2022/06/17 07:04:07;;;;;;;5.68;2.15;;;;;;;23.70;100.00;100461.25;5075333;28;20393;-77
2022/06/17 07:06:36;;;;;;;4.68;2.47;;;;;;;23.64;100.00;100461.91;5074860;28;20477;-81
2022/06/17 07:09:04;;;;;;;7.43;2.88;;;;;;;24.34;100.00;100453.97;5074673;28;20123;-76
2022/06/17 07:11:34;;;;;;;4.35;2.35;;;;;;;24.50;100.00;100453.88;5075683;28;20048;-79
2022/06/17 07:14:02;;;;;;;4.93;2.25;;;;;;;24.88;100.00;100464.09;5073941;28;20462;-78
2022/06/17 07:16:30;;;;;;;9.18;2.83;;;;;;;24.66;100.00;100468.47;5074068;28;20448;-80
2022/06/17 07:18:59;;;;;;;6.80;3.00;;;;;;;24.27;100.00;100461.97;5073830;28;20057;-82
2022/06/17 07:21:27;;;;;;;4.43;2.20;;;;;;;24.51;100.00;100465.63;5075462;28;20097;-82
2022/06/17 07:23:55;;;;;;;4.63;2.40;;;;;;;24.40;100.00;100471.47;5074734;28;20405;-82
2022/06/17 07:26:25;;;;;;;5.63;2.72;;;;;;;24.53;100.00;100466.31;5074447;28;20054;-83
2022/06/17 07:28:56;;;;;;;4.70;2.20;;;;;;;24.18;100.00;100464.88;5073570;28;20466;-83
2022/06/17 07:31:24;;;;;;;4.18;2.40;;;;;;;23.89;100.00;100468.19;5074760;28;20044;-83
2022/06/17 07:33:52;;;;;;;5.28;2.20;;;;;;;24.39;100.00;100473.34;5074682;28;20359;-83
2022/06/17 07:41:57;;;;;;;5.30;2.30;;;;;;;24.17;100.00;100485.00;5074784;28;20500;-83
2022/06/17 07:44:27;;;;;;;5.03;2.25;;;;;;;24.26;100.00;100481.22;5074701;28;20086;-83
2022/06/17 07:46:55;;;;;;;5.55;2.30;;;;;;;24.38;100.00;100490.75;5073244;28;20132;-82
2022/06/17 07:49:23;;;;;;;3.70;2.20;;;;;;;23.98;100.00;100497.97;5073639;28;20048;-83
2022/06/17 07:51:52;;;;;;;4.70;1.92;;;;;;;24.16;100.00;100484.16;5074260;28;20048;-81
2022/06/17 07:54:20;;;;;;;4.65;2.20;;;;;;;24.29;97.81;100486.31;5074390;28;20053;-82
2022/06/17 07:56:54;;;;;;;3.72;2.22;;;;;;;24.29;95.59;100491.75;5076407;28;20055;-82
2022/06/17 07:59:23;;;;;;;5.25;2.17;;;;;;;24.19;89.93;100491.09;5075759;28;20393;-82
2022/06/17 08:01:52;;;;;;;6.47;2.05;;;;;;;24.15;77.20;100497.94;5075354;28;20080;-83
2022/06/17 08:04:21;;;;;;;4.13;1.90;;;;;;;24.38;68.85;100492.63;5073824;28;20048;-83
2022/06/17 08:06:50;;;;;;;4.82;2.10;;;;;;;24.46;62.32;100496.16;5073414;28;20055;-84
2022/06/17 08:09:20;;;;;;;3.20;1.88;;;;;;;24.28;59.12;100492.78;5074371;28;20076;-83
2022/06/17 08:11:49;;;;;;;3.60;2.15;;;;;;;24.11;58.26;100485.69;5074299;28;20037;-82
2022/06/17 08:14:18;;;;;;;4.60;2.17;;;;;;;23.91;58.89;100490.66;5074542;28;20063;-83
2022/06/17 08:16:46;;;;;;;5.47;2.20;;;;;;;24.30;57.68;100496.19;5088358;28;20044;-82
2022/06/17 08:19:16;;;;;;;3.40;2.05;;;;;;;24.40;55.67;100496.84;5086825;28;20486;-83
2022/06/17 08:21:44;;;;;;;3.80;2.20;;;;;;;24.23;52.55;100496.06;5078235;28;20056;-83
2022/06/17 08:24:28;;;;;;;3.90;2.20;;;;;;;24.34;50.94;100503.03;5076322;28;20049;-82
2022/06/17 08:26:56;;;;;;;3.03;2.00;;;;;;;24.58;50.08;100490.31;5073910;28;20479;-83
2022/06/17 08:29:26;;;;;;;3.42;2.03;;;;;;;24.41;51.76;100495.84;5073831;28;20058;-83
2022/06/17 08:35:03;;;;;;;4.25;2.22;;;;;;;24.43;49.45;100501.97;5073268;28;20489;-83
2022/06/17 08:37:32;;;;;;;4.03;2.33;;;;;;;24.31;49.85;100492.47;5073770;28;20041;-83
2022/06/17 08:40:08;;;;;;;;;;;;;;;24.73;50.27;100488.56;5074144;28;20044;-84
2022/06/17 08:42:49;;;;;;;5.45;2.22;;;;;;;24.82;49.14;100487.50;5072651;28;20373;-84
2022/06/17 08:45:29;;;;;;;3.63;1.92;;;;;;;24.85;48.96;100495.31;5073766;28;20047;-84
2022/06/17 08:48:14;;;;;;;3.03;1.92;;;;;;;24.69;48.06;100487.19;5073355;28;20047;-83
2022/06/17 08:51:07;;;;;;;5.68;2.38;;;;;;;24.88;49.37;100494.94;5073641;28;20055;-83
2022/06/17 08:53:51;;;;;;;2.90;2.00;;;;;;;25.04;48.70;100494.88;5073806;28;20055;-83
2022/06/17 08:56:28;;;;;;;3.95;2.08;;;;;;;25.21;45.06;100494.78;5072340;28;20110;-83
2022/06/17 08:59:09;;;;;;;3.67;2.20;;;;;;;25.00;45.13;100493.53;5073018;28;20064;-83
2022/06/17 09:01:48;;;;;;;4.15;2.38;;;;;;;25.16;44.47;100494.47;5073429;28;20064;-83
2022/06/17 09:04:41;;;;;;;3.78;1.92;;;;;;;25.13;43.67;100511.22;5073039;28;20071;-82
2022/06/17 09:07:24;;;;;;;5.03;2.10;;;;;;;24.85;44.62;100506.22;5072071;28;20071;-83
2022/06/17 09:10:24;;;;;;;3.92;2.00;;;;;;;24.95;42.48;100506.00;5073148;28;20066;-81
2022/06/17 09:13:05;;;;;;;2.67;2.00;;;;;;;24.81;42.16;100513.06;5073325;28;20105;-80
2022/06/17 09:15:40;;;;;;;4.97;2.38;;;;;;;25.27;42.53;100518.59;5073536;28;20059;-83
2022/06/17 09:18:21;;;;;;;4.65;2.10;;;;;;;25.32;42.56;100518.94;5073091;28;20048;-84
2022/06/17 09:20:53;;;;;;;4.88;2.28;;;;;;;25.32;41.76;100516.19;5073538;28;20521;-82
2022/06/17 09:23:26;;;;;;;4.37;1.97;;;;;;;25.41;42.12;100515.13;5073957;28;20156;-82
2022/06/17 09:25:56;;;;;;;4.25;2.20;;;;;;;25.48;40.50;100510.63;5073148;28;20114;-80
2022/06/17 09:28:30;;;;;;;3.80;2.25;;;;;;;25.19;38.69;100515.94;5073328;28;20432;-81
2022/06/17 09:31:02;;;;;;;4.68;2.20;;;;;;;25.69;39.50;100518.97;5071813;28;20402;-82
2022/06/17 09:33:36;;;;;;;4.47;2.00;;;;;;;25.48;39.61;100509.75;5073067;28;20094;-82
2022/06/17 09:36:09;;;;;;;3.35;2.20;;;;;;;25.71;38.82;100516.09;5071670;28;20111;-82
2022/06/17 09:38:45;;;;;;;4.63;2.28;;;;;;;25.55;39.67;100517.03;5072775;28;20068;-82
2022/06/17 09:41:19;;;;;;;3.72;2.25;;;;;;;25.76;38.63;100526.44;5073052;28;20041;-82
2022/06/17 09:43:53;;;;;;;4.47;2.13;;;;;;;25.48;39.36;100529.75;5073026;28;20090;-82
2022/06/17 09:46:25;;;;;;;4.70;2.47;;;;;;;25.63;38.98;100525.16;5072975;28;20036;-82
2022/06/17 09:48:58;;;;;;;;;;;;;;;25.60;39.84;100528.28;5073320;28;20124;-82
2022/06/17 09:51:32;;;;;;;6.30;2.65;;;;;;;25.67;39.83;100534.72;5073200;28;19924;-82
2022/06/17 09:54:08;;;;;;;4.00;2.25;;;;;;;25.50;40.51;100526.81;5071881;28;20146;-80
2022/06/17 09:56:43;;;;;;;4.38;2.30;;;;;;;25.85;40.27;100537.13;5072839;28;20165;-82
2022/06/17 09:59:16;;;;;;;5.40;2.47;;;;;;;26.08;38.06;100539.84;5072705;28;20060;-81
2022/06/17 10:01:46;;;;;;;4.13;2.50;;;;;;;25.90;38.62;100544.78;5073046;28;20051;-82
2022/06/17 10:04:16;;;;;;;4.55;2.40;;;;;;;25.74;39.42;100544.91;5072369;28;20114;-84
2022/06/17 10:06:58;;;;;;;4.68;2.70;;;;;;;25.91;39.48;100546.47;5072714;28;20505;-84
2022/06/17 10:09:48;;;;;;;5.78;2.78;;;;;;;26.33;38.25;100540.41;5073138;28;20049;-82
2022/06/17 10:12:25;;;;;;;5.28;2.65;;;;;;;26.36;38.42;100550.16;5072280;28;20049;-83
2022/06/17 10:15:12;;;;;;;5.25;2.25;;;;;;;26.48;38.22;100548.66;5071619;28;20075;-83
2022/06/17 10:20:49;;;;;;;4.88;2.70;;;;;;;26.33;39.21;100534.94;5073130;28;20084;-83
2022/06/17 10:23:31;;;;;;;6.13;2.85;;;;;;;26.25;39.84;100544.09;5072382;28;20105;-82
2022/06/17 10:26:16;;;;;;;5.70;2.90;;;;;;;26.25;40.62;100552.31;5072509;28;20040;-83
2022/06/17 10:29:13;;;;;;;5.97;2.72;;;;;;;26.37;39.36;100565.50;5071669;28;20098;-83
2022/06/17 10:31:44;;;;;;;6.00;2.70;;;;;;;26.51;40.03;100549.13;5072587;28;20036;-83
2022/06/17 10:34:17;;;;;;;5.93;2.60;;;;;;;26.30;40.63;100561.81;5072523;28;20452;-83
2022/06/17 10:36:49;;;;;;;4.55;2.40;;;;;;;26.26;41.52;100553.16;5072362;28;20498;-84
2022/06/17 10:39:19;;;;;;;5.57;2.70;;;;;;;26.38;40.31;100559.03;5071991;28;20546;-84
2022/06/17 10:41:49;;;;;;;4.82;2.60;;;;;;;26.29;38.63;100565.59;5072098;28;20041;-83
2022/06/17 10:44:22;;;;;;;5.75;2.80;;;;;;;26.19;39.58;100566.72;5075831;28;20498;-84
2022/06/17 10:46:55;;;;;;;6.50;2.60;;;;;;;26.19;38.97;100557.66;5076185;28;20096;-83
2022/06/17 10:49:30;;;;;;;6.43;2.65;;;;;;;26.27;38.11;100554.00;5076221;28;20469;-83
2022/06/17 10:52:00;;;;;;;3.90;2.50;;;;;;;26.70;35.06;100564.13;5075755;28;20064;-82
2022/06/17 10:54:35;;;;;;;6.13;2.50;;;;;;;26.73;34.16;100558.28;5075132;28;20444;-83
2022/06/17 10:57:07;;;;;;;4.25;2.40;;;;;;;26.70;34.44;100561.38;5075792;28;20094;-81
2022/06/17 10:59:38;;;;;;;;;;;;;;;26.57;35.00;100558.47;5076059;28;20413;-83
2022/06/17 11:02:23;;;;;;;6.95;2.90;;;;;;;26.94;34.79;100551.19;5074381;28;19924;-82
2022/06/17 11:04:55;;;;;;;3.88;2.75;;;;;;;26.49;36.18;100544.91;5074494;28;20093;-83
2022/06/17 11:07:28;;;;;;;4.30;2.65;;;;;;;26.90;36.47;100553.44;5075518;28;20413;-83
2022/06/17 11:10:01;;;;;;;5.45;2.85;;;;;;;26.77;35.75;100550.53;5075765;28;20140;-83
2022/06/17 11:12:37;;;;;;;5.22;2.80;;;;;;;26.91;35.23;100554.28;5075439;28;20037;-83
2022/06/17 11:15:21;;;;;;;3.80;2.70;;;;;;;26.80;35.96;100548.25;5075439;28;20044;-82
2022/06/17 11:17:52;;;;;;;3.95;2.88;;;;;;;26.84;35.06;100545.16;5075308;28;20152;-83
2022/06/17 11:20:24;;;;;;;4.15;2.63;;;;;;;26.81;35.24;100551.84;5073987;28;20052;-83
2022/06/17 11:23:20;;;;;;;5.43;3.00;;;;;;;26.35;35.78;100564.88;5075012;28;20048;-83
2022/06/17 11:25:51;;;;;;;4.53;2.78;;;;;;;26.46;36.23;100557.06;5075257;28;20106;-83
2022/06/17 11:28:28;;;;;;;5.07;2.90;;;;;;;26.54;36.91;100550.66;5075089;28;20045;-82
2022/06/17 11:30:59;;;;;;;4.70;2.70;;;;;;;26.33;37.92;100556.81;5075350;28;20064;-82
2022/06/17 11:33:32;;;;;;;7.50;2.78;;;;;;;26.30;37.57;100561.81;5075491;28;20056;-83
2022/06/17 11:36:03;;;;;;;;;;;;;;;26.47;38.08;100546.97;5075549;28;20049;-83
2022/06/17 11:38:32;;;;;;;6.82;3.10;;;;;;;26.07;38.75;100557.28;5075025;28;19982;-82
2022/06/17 11:41:23;;;;;;;5.70;3.30;;;;;;;26.06;38.62;100552.00;5073515;28;20052;-82
2022/06/17 11:43:54;;;;;;;5.13;2.83;;;;;;;26.11;39.14;100553.13;5075439;28;20048;-83
2022/06/17 11:46:25;;;;;;;4.03;2.67;;;;;;;26.03;39.23;100550.47;5074817;28;20036;-82
2022/06/17 11:48:58;;;;;;;5.85;3.00;;;;;;;26.16;38.26;100553.44;5075074;28;20531;-83
2022/06/17 11:51:29;;;;;;;7.70;3.42;;;;;;;25.95;39.41;100548.66;5074816;28;20044;-82
2022/06/17 11:54:00;;;;;;;7.63;3.20;;;;;;;25.88;38.63;100552.31;5090070;28;20047;-82
2022/06/17 11:56:35;;;;;;;7.20;2.92;;;;;;;26.29;38.95;100551.94;5087491;28;20109;-82
2022/06/17 11:59:18;;;;;;;4.00;2.75;;;;;;;26.41;38.52;100554.03;5075244;28;20079;-81